createdAt,value
2024-04-09T00:00:30.496Z,50.5
2024-04-09T00:01:33.114Z,50.1
2024-04-09T00:02:34.890Z,50.4
2024-04-09T00:03:36.949Z,50.5
2024-04-09T00:04:39.305Z,50.9
2024-04-09T00:05:39.988Z,51.7
2024-04-09T00:06:42.192Z,50.7
2024-04-09T00:07:44.014Z,52
2024-04-09T00:08:46.238Z,51.5
2024-04-09T00:09:49.187Z,50.3
2024-04-09T00:10:50.176Z,49.6
2024-04-09T00:11:52.151Z,48.5
2024-04-09T00:12:54.493Z,49.5
2024-04-09T00:13:56.760Z,48.1
2024-04-09T00:14:58.302Z,48.1
2024-04-09T00:16:00.928Z,48.3
2024-04-09T00:17:02.443Z,47.2
2024-04-09T00:18:04.502Z,46.5
2024-04-09T00:19:06.891Z,46.4
2024-04-09T00:20:07.985Z,46.2
2024-04-09T00:21:10.585Z,45.7
2024-04-09T00:22:13.202Z,45.5
2024-04-09T00:23:15.011Z,45
2024-04-09T00:24:16.181Z,44.9
2024-04-09T00:25:17.998Z,44.9
2024-04-09T00:26:19.982Z,44.4
2024-04-09T00:27:22.893Z,44.7
2024-04-09T00:28:23.968Z,44.4
2024-04-09T00:29:25.963Z,45.3
2024-04-09T00:30:28.228Z,44.7
2024-04-09T00:31:29.955Z,45.3
2024-04-09T00:32:32.352Z,45.3
2024-04-09T00:33:35.052Z,44.8
2024-04-09T00:34:36.730Z,44.8
2024-04-09T00:35:37.975Z,44.7
2024-04-09T00:36:40.542Z,45.7
2024-04-09T00:37:41.947Z,44.9
2024-04-09T00:38:43.949Z,45.8
2024-04-09T00:39:46.679Z,44.5
2024-04-09T00:40:47.939Z,44.9
2024-04-09T00:41:50.744Z,45.1
2024-04-09T00:42:51.930Z,44.1
2024-04-09T00:43:55.117Z,43.9
2024-04-09T00:44:56.356Z,43.4
2024-04-09T00:45:59.230Z,43.2
2024-04-09T00:46:59.981Z,44.9
2024-04-09T00:48:02.677Z,43.9
2024-04-09T00:49:04.608Z,44.8
2024-04-09T00:50:06.139Z,44.2
2024-04-09T00:51:08.933Z,44.2
2024-04-09T00:52:09.922Z,44.7
2024-04-09T00:53:13.079Z,45.1
2024-04-09T00:54:14.797Z,45
2024-04-09T00:55:16.560Z,45
2024-04-09T00:56:18.252Z,44.7
2024-04-09T00:57:20.102Z,45.3
2024-04-09T00:58:22.021Z,45.2
2024-04-09T00:59:23.911Z,45.1
2024-04-09T01:00:26.311Z,45
2024-04-09T01:01:28.452Z,46.3
2024-04-09T01:02:30.084Z,45.4
2024-04-09T01:03:32.543Z,45.4
2024-04-09T01:04:34.265Z,45
2024-04-09T01:05:35.922Z,45.9
2024-04-09T01:06:38.279Z,45.2
2024-04-09T01:07:39.949Z,44.7
2024-04-09T01:08:41.904Z,45
2024-04-09T01:09:43.908Z,44.9
2024-04-09T01:10:46.196Z,45.4
2024-04-09T01:11:47.902Z,45
2024-04-09T01:12:49.954Z,45.5
2024-04-09T01:13:51.894Z,44.7
2024-04-09T01:14:54.111Z,44.7
2024-04-09T01:15:55.888Z,45.8
2024-04-09T01:16:58.226Z,45.6
2024-04-09T01:18:00.317Z,45.6
2024-04-09T01:19:02.367Z,45.8
2024-04-09T01:20:04.043Z,46.5
2024-04-09T01:21:06.160Z,47.6
2024-04-09T01:22:07.923Z,47.5
2024-04-09T01:23:09.886Z,47.7
2024-04-09T01:24:12.277Z,48.1
2024-04-09T01:25:13.902Z,48
2024-04-09T01:26:15.921Z,48.5
2024-04-09T01:27:18.201Z,48.9
2024-04-09T01:28:20.175Z,49
2024-04-09T01:29:21.887Z,49.7
2024-04-09T01:30:24.364Z,50.5
2024-04-09T01:31:25.899Z,50.5
2024-04-09T01:32:28.179Z,51
2024-04-09T01:33:30.205Z,51.7
2024-04-09T01:34:32.274Z,52.3
2024-04-09T01:35:34.265Z,52.9
2024-04-09T01:36:36.382Z,52.9
2024-04-09T01:37:37.896Z,53.2
2024-04-09T01:38:39.871Z,53.9
2024-04-09T01:39:42.175Z,55.3
2024-04-09T01:40:43.894Z,55.5
2024-04-09T01:41:45.966Z,56.2
2024-04-09T01:42:47.860Z,56.2
2024-04-09T01:43:49.993Z,56.9
2024-04-09T01:44:51.900Z,57.9
2024-04-09T01:45:54.482Z,59.7
2024-04-09T01:46:55.954Z,60.3
2024-04-09T01:47:58.643Z,60.5
2024-04-09T01:49:00.110Z,60.5
2024-04-09T01:50:01.928Z,61.5
2024-04-09T01:51:04.180Z,62.4
2024-04-09T01:52:05.880Z,62.9
2024-04-09T01:53:07.959Z,63.6
2024-04-09T01:54:10.056Z,63.4
2024-04-09T01:55:11.877Z,63.4
2024-04-09T01:56:13.857Z,64.1
2024-04-09T01:57:16.243Z,65.1
2024-04-09T01:58:17.848Z,65.3
2024-04-09T01:59:19.879Z,65.3
2024-04-09T02:00:22.721Z,65.2
2024-04-09T02:01:23.874Z,65.6
2024-04-09T02:02:26.159Z,66
2024-04-09T02:03:28.284Z,66.2
2024-04-09T02:04:30.343Z,66.4
2024-04-09T02:05:31.863Z,66.5
2024-04-09T02:06:34.496Z,66.6
2024-04-09T02:07:35.870Z,66.7
2024-04-09T02:08:37.877Z,67.5
2024-04-09T02:09:40.003Z,67.8
2024-04-09T02:10:41.847Z,68.3
2024-04-09T02:11:44.025Z,69.6
2024-04-09T02:12:46.128Z,70.4
2024-04-09T02:13:47.848Z,70.4
2024-04-09T02:14:49.851Z,70.5
2024-04-09T02:15:51.825Z,70.8
2024-04-09T02:16:54.008Z,70.7
2024-04-09T02:17:56.436Z,71.5
2024-04-09T02:18:58.115Z,71.6
2024-04-09T02:20:00.165Z,72.1
2024-04-09T02:21:02.229Z,72.1
2024-04-09T02:22:03.952Z,72.2
2024-04-09T02:23:05.865Z,72.6
2024-04-09T02:24:08.116Z,72.8
2024-04-09T02:25:09.855Z,73.4
2024-04-09T02:26:11.828Z,73.3
2024-04-09T02:27:13.916Z,73.5
2024-04-09T02:28:15.983Z,73.7
2024-04-09T02:29:18.026Z,74.5
2024-04-09T02:30:20.103Z,74.4
2024-04-09T02:31:21.873Z,74.7
2024-04-09T02:32:23.829Z,74.4
2024-04-09T02:33:26.302Z,74.4
2024-04-09T02:34:27.867Z,75
2024-04-09T02:35:29.808Z,75.1
2024-04-09T02:36:32.169Z,75.7
2024-04-09T02:37:34.156Z,75.9
2024-04-09T02:38:35.849Z,75.4
2024-04-09T02:39:38.083Z,75.6
2024-04-09T02:40:39.811Z,76.2
2024-04-09T02:41:41.840Z,76.8
2024-04-09T02:42:44.159Z,76.4
2024-04-09T02:43:45.873Z,76.4
2024-04-09T02:44:47.815Z,76.4
2024-04-09T02:45:49.979Z,76.6
2024-04-09T02:46:52.075Z,76.9
2024-04-09T02:47:54.124Z,76.6
2024-04-09T02:48:56.183Z,77
2024-04-09T02:49:57.804Z,77.2
2024-04-09T02:50:59.965Z,77
2024-04-09T02:52:02.308Z,77.2
2024-04-09T02:53:04.055Z,77.2
2024-04-09T02:54:06.147Z,77.2
2024-04-09T02:55:07.835Z,77.4
2024-04-09T02:56:09.823Z,77.7
2024-04-09T02:57:12.305Z,77.5
2024-04-09T02:58:13.770Z,77.5
2024-04-09T02:59:16.075Z,77.8
2024-04-09T03:00:18.166Z,77.9
2024-04-09T03:01:20.327Z,78.2
2024-04-09T03:02:22.268Z,78.4
2024-04-09T03:03:24.047Z,78.3
2024-04-09T03:04:26.099Z,78.7
2024-04-09T03:05:27.806Z,78.9
2024-04-09T03:06:30.164Z,78.9
2024-04-09T03:07:32.179Z,79.1
2024-04-09T03:08:33.951Z,79.4
2024-04-09T03:09:36.055Z,79.5
2024-04-09T03:10:37.756Z,79.5
2024-04-09T03:11:39.772Z,79.5
2024-04-09T03:12:42.328Z,79.7
2024-04-09T03:13:44.147Z,79.9
2024-04-09T03:14:45.794Z,80.1
2024-04-09T03:15:48.071Z,80.3
2024-04-09T03:16:50.117Z,80.7
2024-04-09T03:17:51.856Z,81.1
2024-04-09T03:18:54.255Z,81.2
2024-04-09T03:19:55.786Z,81.4
2024-04-09T03:20:58.046Z,81.1
2024-04-09T03:21:59.756Z,81
2024-04-09T03:23:01.921Z,81.4
2024-04-09T03:24:04.294Z,81.9
2024-04-09T03:25:05.758Z,81.6
2024-04-09T03:26:08.003Z,81.4
2024-04-09T03:27:10.031Z,81.4
2024-04-09T03:28:11.773Z,81.2
2024-04-09T03:29:14.048Z,80.8
2024-04-09T03:30:15.929Z,80.8
2024-04-09T03:31:17.729Z,80.7
2024-04-09T03:32:20.053Z,80.6
2024-04-09T03:33:22.119Z,80.7
2024-04-09T03:34:24.178Z,80.7
2024-04-09T03:35:25.728Z,80.9
2024-04-09T03:36:27.917Z,81.3
2024-04-09T03:37:29.737Z,81.2
2024-04-09T03:38:32.002Z,81.7
2024-04-09T03:39:34.162Z,81.8
2024-04-09T03:40:35.755Z,81.9
2024-04-09T03:41:37.720Z,82
2024-04-09T03:42:39.985Z,82.8
2024-04-09T03:43:41.973Z,83.3
2024-04-09T03:44:44.027Z,83.5
2024-04-09T03:45:45.746Z,83.7
2024-04-09T03:46:47.730Z,83.9
2024-04-09T03:47:50.244Z,84
2024-04-09T03:48:52.399Z,84.4
2024-04-09T03:49:53.996Z,85
2024-04-09T03:50:55.797Z,85.2
2024-04-09T03:51:57.738Z,85.5
2024-04-09T03:52:59.759Z,85.8
2024-04-09T03:54:02.020Z,85.9
2024-04-09T03:55:03.732Z,86.6
2024-04-09T03:56:05.735Z,86.6
2024-04-09T03:57:08.072Z,87.4
2024-04-09T03:58:09.706Z,87.3
2024-04-09T03:59:11.873Z,87.9
2024-04-09T04:00:14.277Z,89
2024-04-09T04:01:16.000Z,89
2024-04-09T04:02:17.775Z,89
2024-04-09T04:03:19.844Z,88.9
2024-04-09T04:04:22.198Z,88.9
2024-04-09T04:05:23.897Z,89
2024-04-09T04:06:25.960Z,89.2
2024-04-09T04:07:27.702Z,89.9
2024-04-09T04:08:30.057Z,90
2024-04-09T04:09:31.938Z,89.2
2024-04-09T04:10:33.912Z,89.1
2024-04-09T04:11:35.991Z,89.4
2024-04-09T04:12:38.070Z,89.7
2024-04-09T04:13:39.723Z,89.8
2024-04-09T04:14:41.692Z,90.2
2024-04-09T04:15:43.894Z,90.3
2024-04-09T04:16:45.947Z,90.2
2024-04-09T04:17:47.942Z,90.5
2024-04-09T04:18:50.425Z,90.9
2024-04-09T04:19:51.677Z,91.1
2024-04-09T04:20:53.744Z,91.6
2024-04-09T04:21:55.864Z,91.6
2024-04-09T04:22:57.676Z,92
2024-04-09T04:23:59.961Z,91.6
2024-04-09T04:25:02.064Z,91.2
2024-04-09T04:26:04.078Z,91.6
2024-04-09T04:27:05.856Z,91.5
2024-04-09T04:28:07.672Z,91.6
2024-04-09T04:29:09.686Z,91
2024-04-09T04:30:11.980Z,91.3
2024-04-09T04:31:13.690Z,91.6
2024-04-09T04:32:15.810Z,91.7
2024-04-09T04:33:18.361Z,91.4
2024-04-09T04:34:19.925Z,91.5
2024-04-09T04:35:21.943Z,91.1
2024-04-09T04:36:24.115Z,90.8
2024-04-09T04:37:25.663Z,90.9
2024-04-09T04:38:27.656Z,90.8
2024-04-09T04:39:29.881Z,91
2024-04-09T04:40:31.654Z,90.8
2024-04-09T04:41:33.677Z,90.6
2024-04-09T04:42:35.804Z,90.6
2024-04-09T04:43:37.692Z,90.4
2024-04-09T04:44:39.688Z,90.6
2024-04-09T04:45:41.928Z,90.5
2024-04-09T04:46:43.658Z,90.7
2024-04-09T04:47:46.061Z,90.5
2024-04-09T04:48:48.132Z,90.9
2024-04-09T04:49:50.286Z,90.8
2024-04-09T04:50:51.635Z,90.5
2024-04-09T04:51:53.644Z,90.6
2024-04-09T04:52:55.658Z,90.5
2024-04-09T04:53:58.039Z,90.7
2024-04-09T04:54:59.659Z,91.1
2024-04-09T04:56:02.256Z,91.4
2024-04-09T04:57:03.890Z,92
2024-04-09T04:58:05.690Z,91.8
2024-04-09T04:59:07.652Z,91.6
2024-04-09T05:00:10.043Z,91.6
2024-04-09T05:01:11.669Z,92
2024-04-09T05:02:13.731Z,92.1
2024-04-09T05:03:16.288Z,92.2
2024-04-09T05:04:18.389Z,92.2
2024-04-09T05:05:20.244Z,92.3
2024-04-09T05:06:21.748Z,92.5
2024-04-09T05:07:23.643Z,92.5
2024-04-09T05:08:25.661Z,92.5
2024-04-09T05:09:28.209Z,92.3
2024-04-09T05:10:29.968Z,92.5
2024-04-09T05:11:31.747Z,92.7
2024-04-09T05:12:34.144Z,92.9
2024-04-09T05:13:35.626Z,93.3
2024-04-09T05:14:37.614Z,93.6
2024-04-09T05:15:39.957Z,93.7
2024-04-09T05:16:41.642Z,94
2024-04-09T05:17:44.091Z,94.2
2024-04-09T05:18:46.280Z,94.4
2024-04-09T05:19:47.860Z,94.6
2024-04-09T05:20:49.606Z,94.8
2024-04-09T05:21:51.656Z,95.2
2024-04-09T05:22:53.599Z,95.3
2024-04-09T05:23:55.602Z,95.3
2024-04-09T05:24:57.622Z,95.2
2024-04-09T05:25:59.866Z,95.3
2024-04-09T05:27:01.935Z,95.4
2024-04-09T05:28:03.664Z,95.6
2024-04-09T05:29:05.629Z,95.6
2024-04-09T05:30:08.982Z,95.6
2024-04-09T05:31:09.652Z,95.7
2024-04-09T05:32:11.919Z,95.8
2024-04-09T05:33:14.030Z,96
2024-04-09T05:34:16.085Z,96.3
2024-04-09T05:35:17.627Z,96.4
2024-04-09T05:36:19.841Z,96.6
2024-04-09T05:37:22.690Z,96.7
2024-04-09T05:38:23.599Z,96.9
2024-04-09T05:39:26.023Z,97.1
2024-04-09T05:40:29.168Z,97.3
2024-04-09T05:41:32.444Z,97.5
2024-04-09T05:42:33.439Z,97.6
2024-04-09T05:43:35.101Z,97.7
2024-04-09T05:44:37.028Z,98
2024-04-09T05:45:39.259Z,98
2024-04-09T05:46:40.990Z,98
2024-04-09T05:47:43.497Z,98
2024-04-09T05:48:45.537Z,98.1
2024-04-09T05:49:47.212Z,98.2
2024-04-09T05:50:49.010Z,98
2024-04-09T05:51:50.996Z,97.9
2024-04-09T05:52:52.969Z,97.7
2024-04-09T05:53:54.979Z,97.7
2024-04-09T05:54:56.989Z,97.6
2024-04-09T05:55:58.964Z,97.7
2024-04-09T05:57:01.227Z,97.8
2024-04-09T05:58:02.968Z,98.1
2024-04-09T05:59:05.006Z,97.7
2024-04-09T06:00:07.423Z,97.6
2024-04-09T06:01:09.182Z,97.6
2024-04-09T06:02:11.246Z,97.4
2024-04-09T06:03:13.494Z,97.3
2024-04-09T06:04:17.655Z,97.4
2024-04-09T06:05:19.006Z,97.5
2024-04-09T06:06:20.272Z,97.7
2024-04-09T06:07:22.288Z,97.8
2024-04-09T06:08:24.227Z,97.8
2024-04-09T06:09:26.479Z,97.6
2024-04-09T06:10:28.193Z,97.6
2024-04-09T06:11:33.214Z,97.5
2024-04-09T06:12:34.490Z,97.3
2024-04-09T06:13:35.844Z,97.4
2024-04-09T06:14:37.814Z,97.4
2024-04-09T06:15:40.195Z,97.4
2024-04-09T06:16:41.801Z,97.5
2024-04-09T06:17:44.181Z,97.5
2024-04-09T06:18:46.253Z,97.8
2024-04-09T06:19:47.996Z,98
2024-04-09T06:20:49.800Z,98.1
2024-04-09T06:21:51.798Z,98.4
2024-04-09T06:22:53.836Z,98.6
2024-04-09T06:23:55.794Z,98.8
2024-04-09T06:24:57.791Z,99.1
2024-04-09T06:25:59.824Z,99.4
2024-04-09T06:27:01.880Z,99.5
2024-04-09T06:28:03.901Z,99.7
2024-04-09T06:29:05.822Z,99.8
2024-04-09T06:30:08.224Z,99.8
2024-04-09T06:31:09.803Z,99.9
2024-04-09T06:32:11.999Z,99.9
2024-04-09T06:33:16.640Z,99.9
2024-04-09T06:34:17.710Z,99.9
2024-04-09T06:35:19.284Z,99.9
2024-04-09T06:36:27.905Z,99.8
2024-04-09T06:37:28.687Z,99.8
2024-04-09T06:38:30.639Z,99.9
2024-04-09T06:39:32.862Z,99.9
2024-04-09T06:40:34.641Z,99.9
2024-04-09T06:41:36.924Z,99.9
2024-04-09T06:42:39.038Z,99.9
2024-04-09T06:43:40.682Z,99.9
2024-04-09T06:44:42.647Z,99.9
2024-04-09T06:45:45.247Z,99.7
2024-04-09T06:46:46.708Z,99.6
2024-04-09T06:47:48.999Z,99.7
2024-04-09T06:48:51.087Z,99.8
2024-04-09T06:49:53.947Z,99.9
2024-04-09T06:50:54.659Z,99.9
2024-04-09T06:51:56.625Z,99.9
2024-04-09T06:52:58.633Z,99.9
2024-04-09T06:54:00.973Z,99.9
2024-04-09T06:55:02.647Z,99.9
2024-04-09T06:56:04.649Z,99.9
2024-04-09T06:57:06.866Z,99.9
2024-04-09T06:58:08.631Z,99.9
2024-04-09T06:59:10.928Z,99.9
2024-04-09T07:00:13.602Z,99.9
2024-04-09T07:01:15.349Z,99.9
2024-04-09T07:02:17.709Z,99.9
2024-04-09T07:03:19.443Z,99.8
2024-04-09T07:04:21.660Z,99.5
2024-04-09T07:05:23.795Z,99
2024-04-09T07:06:25.893Z,98.7
2024-04-09T07:07:27.917Z,98.4
2024-04-09T07:08:29.368Z,98.3
2024-04-09T07:09:31.474Z,98.3
2024-04-09T07:10:33.461Z,98.1
2024-04-09T07:11:35.684Z,98.2
2024-04-09T07:12:37.069Z,98.2
2024-04-09T07:13:42.403Z,98.2
2024-04-09T07:14:44.442Z,98.4
2024-04-09T07:15:45.718Z,98.6
2024-04-09T07:16:48.102Z,98.8
2024-04-09T07:17:50.371Z,98.9
2024-04-09T07:18:52.239Z,98.9
2024-04-09T07:19:53.790Z,98.8
2024-04-09T07:20:55.924Z,98.5
2024-04-09T07:21:57.324Z,98.7
2024-04-09T07:22:59.395Z,98.9
2024-04-09T07:24:02.319Z,99.2
2024-04-09T07:25:04.410Z,99.6
2024-04-09T07:26:06.120Z,99.6
2024-04-09T07:27:07.651Z,99.7
2024-04-09T07:28:10.580Z,99.7
2024-04-09T07:29:15.140Z,99.8
2024-04-09T07:30:16.870Z,99.9
2024-04-09T07:31:18.892Z,99.9
2024-04-09T07:32:19.610Z,99.7
2024-04-09T07:33:21.953Z,99.8
2024-04-09T07:34:23.597Z,99.9
2024-04-09T07:35:25.581Z,99.8
2024-04-09T07:36:27.675Z,99.7
2024-04-09T07:37:29.733Z,99.8
2024-04-09T07:38:32.144Z,99.9
2024-04-09T07:39:33.873Z,99.9
2024-04-09T07:40:36.452Z,99.9
2024-04-09T07:41:37.633Z,99.9
2024-04-09T07:42:40.948Z,99.9
2024-04-09T07:43:42.338Z,99.9
2024-04-09T07:44:44.081Z,99.9
2024-04-09T07:45:45.925Z,99.9
2024-04-09T07:46:47.620Z,99.9
2024-04-09T07:47:50.232Z,99.9
2024-04-09T07:48:52.445Z,99.9
2024-04-09T07:49:53.690Z,99.9
2024-04-09T07:50:55.656Z,99.9
2024-04-09T07:51:58.117Z,99.4
2024-04-09T07:52:59.889Z,99.2
2024-04-09T07:54:02.352Z,99.3
2024-04-09T07:55:04.083Z,99.5
2024-04-09T07:56:05.649Z,99.4
2024-04-09T07:57:07.943Z,98.9
2024-04-09T07:58:11.132Z,98.7
2024-04-09T07:59:11.904Z,98.3
2024-04-09T08:00:14.046Z,98
2024-04-09T08:01:16.113Z,97.5
2024-04-09T08:02:17.892Z,97.9
2024-04-09T08:03:20.471Z,98.5
2024-04-09T08:04:22.407Z,99.1
2024-04-09T08:05:24.551Z,99.2
2024-04-09T08:06:26.494Z,99.4
2024-04-09T08:07:28.293Z,99.7
2024-04-09T08:08:36.751Z,99.9
2024-04-09T08:09:40.598Z,99.9
2024-04-09T08:10:45.573Z,99.9
2024-04-09T08:11:47.066Z,96.8
2024-04-09T08:12:48.495Z,95.4
2024-04-09T08:13:50.474Z,95.8
2024-04-09T08:14:51.905Z,95.9
2024-04-09T08:15:54.101Z,95.7
2024-04-09T08:16:55.871Z,96.3
2024-04-09T08:17:58.285Z,96.9
2024-04-09T08:19:00.686Z,97
2024-04-09T08:20:02.375Z,97.5
2024-04-09T08:21:04.088Z,98.1
2024-04-09T08:22:05.870Z,98.5
2024-04-09T08:23:07.867Z,98.3
2024-04-09T08:24:10.273Z,98.5
2024-04-09T08:25:11.865Z,98.3
2024-04-09T08:26:13.863Z,98.4
2024-04-09T08:27:15.909Z,98.3
2024-04-09T08:28:17.858Z,98.3
2024-04-09T08:29:19.878Z,97.7
2024-04-09T08:30:22.283Z,97.5
2024-04-09T08:31:23.850Z,97.9
2024-04-09T08:32:26.050Z,98.2
2024-04-09T08:33:28.381Z,98.4
2024-04-09T08:34:30.482Z,98.6
2024-04-09T08:35:32.261Z,98.2
2024-04-09T08:36:33.997Z,97.9
2024-04-09T08:37:36.391Z,97
2024-04-09T08:38:37.888Z,95.8
2024-04-09T08:39:40.098Z,95.3
2024-04-09T08:40:42.159Z,95.4
2024-04-09T08:41:43.833Z,95.8
2024-04-09T08:42:46.591Z,95.5
2024-04-09T08:43:48.041Z,95.2
2024-04-09T08:44:50.102Z,95.9
2024-04-09T08:45:52.279Z,96.4
2024-04-09T08:46:54.168Z,96.2
2024-04-09T08:47:56.357Z,95.8
2024-04-09T08:48:58.481Z,96
2024-04-09T08:50:05.691Z,95.9
2024-04-09T08:51:08.010Z,96.4
2024-04-09T08:52:09.990Z,96.7
2024-04-09T08:53:11.800Z,96.5
2024-04-09T08:54:14.092Z,96.3
2024-04-09T08:55:21.051Z,96.8
2024-04-09T08:56:22.125Z,96.8
2024-04-09T08:57:24.557Z,96.9
2024-04-09T08:58:26.114Z,96.5
2024-04-09T08:59:28.124Z,96.8
2024-04-09T09:00:30.487Z,96.9
2024-04-09T09:01:32.543Z,97.3
2024-04-09T09:02:34.281Z,97.7
2024-04-09T09:03:36.718Z,98
2024-04-09T09:04:38.914Z,97.9
2024-04-09T09:05:40.119Z,98
2024-04-09T09:06:42.714Z,97.9
2024-04-09T09:07:44.098Z,98.1
2024-04-09T09:08:46.216Z,97.8
2024-04-09T09:09:48.600Z,98.2
2024-04-09T09:10:50.367Z,98
2024-04-09T09:11:52.117Z,98.4
2024-04-09T09:12:54.466Z,98.3
2024-04-09T09:13:56.107Z,98.4
2024-04-09T09:14:58.083Z,98.2
2024-04-09T09:16:00.127Z,98.4
2024-04-09T09:17:02.156Z,98.8
2024-04-09T09:18:04.866Z,99.4
2024-04-09T09:19:06.691Z,99.5
2024-04-09T09:20:08.101Z,99.6
2024-04-09T09:21:10.357Z,99.2
2024-04-09T09:22:12.446Z,99
2024-04-09T09:23:14.092Z,98.7
2024-04-09T09:24:16.423Z,98.9
2024-04-09T09:25:18.117Z,99
2024-04-09T09:26:20.161Z,98
2024-04-09T09:27:22.297Z,98
2024-04-09T09:28:24.555Z,98.4
2024-04-09T09:29:26.063Z,98.1
2024-04-09T09:30:28.469Z,97.5
2024-04-09T09:31:30.227Z,97.6
2024-04-09T09:32:32.264Z,97.8
2024-04-09T09:33:35.808Z,98
2024-04-09T09:34:36.575Z,98.1
2024-04-09T09:35:38.325Z,98.3
2024-04-09T09:36:41.023Z,98.4
2024-04-09T09:37:42.317Z,98.4
2024-04-09T09:38:44.289Z,98.7
2024-04-09T09:39:46.730Z,98.8
2024-04-09T09:40:48.282Z,98.7
2024-04-09T09:41:50.282Z,98.9
2024-04-09T09:42:52.506Z,98.9
2024-04-09T09:43:54.286Z,99.2
2024-04-09T09:44:56.304Z,99.3
2024-04-09T09:45:58.275Z,99.4
2024-04-09T09:47:00.427Z,99.6
2024-04-09T09:48:02.942Z,99.8
2024-04-09T09:49:04.906Z,99.9
2024-04-09T09:50:18.623Z,99.9
2024-04-09T09:51:20.675Z,99.9
2024-04-09T09:52:21.935Z,99.9
2024-04-09T09:53:25.374Z,99.9
2024-04-09T09:54:26.494Z,99.9
2024-04-09T09:55:29.298Z,99.8
2024-04-09T09:56:30.252Z,99.6
2024-04-09T09:57:32.329Z,99.7
2024-04-09T09:58:34.248Z,99.8
2024-04-09T09:59:36.100Z,99.9
2024-04-09T10:00:38.568Z,99.9
2024-04-09T10:01:40.242Z,99.9
2024-04-09T10:02:51.503Z,99.9
2024-04-09T10:03:52.425Z,99.9
2024-04-09T10:04:54.810Z,99.9
2024-04-09T10:05:56.117Z,99.9
2024-04-09T10:07:00.976Z,99.9
2024-04-09T10:08:02.964Z,98.1
2024-04-09T10:09:05.091Z,98
2024-04-09T10:10:06.941Z,98.4
2024-04-09T10:11:09.188Z,98.6
2024-04-09T10:12:13.445Z,96.4
2024-04-09T10:13:15.370Z,95.7
2024-04-09T10:14:17.059Z,91.1
2024-04-09T10:15:19.480Z,91.2
2024-04-09T10:16:23.043Z,91.5
2024-04-09T10:17:25.764Z,93.1
2024-04-09T10:18:26.761Z,92.6
2024-04-09T10:19:28.420Z,92.2
2024-04-09T10:20:30.331Z,93.2
2024-04-09T10:21:32.848Z,93.5
2024-04-09T10:22:34.275Z,94.6
2024-04-09T10:23:37.122Z,95
2024-04-09T10:24:38.714Z,95.1
2024-04-09T10:25:40.261Z,94.4
2024-04-09T10:26:42.286Z,93.6
2024-04-09T10:27:44.512Z,92.6
2024-04-09T10:28:46.917Z,90.4
2024-04-09T10:29:48.373Z,89.6
2024-04-09T10:30:51.545Z,90.4
2024-04-09T10:31:53.259Z,91.6
2024-04-09T10:32:55.127Z,92.2
2024-04-09T10:33:56.871Z,93.2
2024-04-09T10:34:59.584Z,94
2024-04-09T10:36:03.312Z,93
2024-04-09T10:37:05.665Z,92.8
2024-04-09T10:38:07.411Z,92.2
2024-04-09T10:39:09.797Z,91.8
2024-04-09T10:40:11.538Z,91.2
2024-04-09T10:41:12.487Z,90.4
2024-04-09T10:42:14.821Z,91
2024-04-09T10:43:16.453Z,90.1
2024-04-09T10:44:18.450Z,89.7
2024-04-09T10:45:20.692Z,90
2024-04-09T10:46:23.743Z,89.3
2024-04-09T10:47:25.237Z,90.1
2024-04-09T10:48:27.226Z,90
2024-04-09T10:49:28.586Z,90.3
2024-04-09T10:50:30.471Z,90.5
2024-04-09T10:51:32.759Z,90.2
2024-04-09T10:52:34.435Z,89.3
2024-04-09T10:53:36.793Z,88.2
2024-04-09T10:54:38.843Z,88.1
2024-04-09T10:55:40.573Z,89.5
2024-04-09T10:56:42.453Z,89.5
2024-04-09T10:57:44.732Z,89.9
2024-04-09T10:58:46.461Z,90.3
2024-04-09T10:59:48.491Z,90.2
2024-04-09T11:00:51.023Z,90.2
2024-04-09T11:01:53.044Z,90.4
2024-04-09T11:02:54.629Z,90.4
2024-04-09T11:03:56.742Z,91.4
2024-04-09T11:04:58.867Z,91
2024-04-09T11:06:01.773Z,88.6
2024-04-09T11:07:02.692Z,89
2024-04-09T11:08:04.605Z,89.7
2024-04-09T11:09:08.319Z,89.5
2024-04-09T11:10:09.049Z,89.9
2024-04-09T11:11:11.422Z,89.7
2024-04-09T11:12:13.169Z,90.1
2024-04-09T11:13:15.207Z,88.7
2024-04-09T11:14:17.012Z,89.7
2024-04-09T11:15:19.037Z,89.5
2024-04-09T11:16:21.614Z,89.3
2024-04-09T11:17:23.523Z,87.7
2024-04-09T11:18:25.565Z,89
2024-04-09T11:19:27.709Z,88.1
2024-04-09T11:20:28.991Z,88.1
2024-04-09T11:21:31.397Z,88.6
2024-04-09T11:22:32.975Z,89.1
2024-04-09T11:23:34.998Z,87.2
2024-04-09T11:24:37.228Z,88.4
2024-04-09T11:25:38.980Z,89.3
2024-04-09T11:26:41.082Z,87.5
2024-04-09T11:27:43.593Z,87.3
2024-04-09T11:28:45.099Z,88.1
2024-04-09T11:29:46.948Z,84.5
2024-04-09T11:30:49.290Z,83.8
2024-04-09T11:31:51.296Z,83.6
2024-04-09T11:32:53.651Z,83.9
2024-04-09T11:33:55.451Z,86.5
2024-04-09T11:34:57.176Z,85.4
2024-04-09T11:35:59.436Z,82.8
2024-04-09T11:37:01.918Z,85
2024-04-09T11:38:03.298Z,84.1
2024-04-09T11:39:06.243Z,86.3
2024-04-09T11:40:09.552Z,86.7
2024-04-09T11:41:10.300Z,86.3
2024-04-09T11:42:12.165Z,84
2024-04-09T11:43:15.369Z,85.4
2024-04-09T11:44:15.849Z,85.2
2024-04-09T11:45:18.033Z,85.1
2024-04-09T11:46:19.858Z,84.1
2024-04-09T11:47:22.204Z,83.3
2024-04-09T11:48:24.298Z,83
2024-04-09T11:49:26.282Z,81.9
2024-04-09T11:50:29.133Z,83.5
2024-04-09T11:51:30.306Z,85.9
2024-04-09T11:52:32.095Z,84.7
2024-04-09T11:53:35.871Z,83
2024-04-09T11:54:37.462Z,83.8
2024-04-09T11:55:39.370Z,84.4
2024-04-09T11:56:41.734Z,84.1
2024-04-09T11:57:43.582Z,83.8
2024-04-09T11:58:44.408Z,81.4
2024-04-09T11:59:46.421Z,82.1
2024-04-09T12:00:49.522Z,80.9
2024-04-09T12:01:51.250Z,81
2024-04-09T12:02:52.417Z,80.6
2024-04-09T12:03:54.817Z,80.6
2024-04-09T12:04:57.155Z,77.8
2024-04-09T12:06:03.149Z,77.7
2024-04-09T12:07:04.633Z,76.1
2024-04-09T12:08:06.573Z,75.9
2024-04-09T12:09:09.421Z,72.1
2024-04-09T12:10:10.127Z,72.3
2024-04-09T12:11:12.470Z,68
2024-04-09T12:12:15.078Z,72.5
2024-04-09T12:13:16.650Z,69.9
2024-04-09T12:14:18.532Z,69.3
2024-04-09T12:15:21.527Z,68.9
2024-04-09T12:16:23.582Z,69.6
2024-04-09T12:17:24.828Z,69.7
2024-04-09T12:18:26.885Z,71.8
2024-04-09T12:19:28.702Z,72.6
2024-04-09T12:20:30.959Z,71.2
2024-04-09T12:21:33.318Z,69.1
2024-04-09T12:22:34.479Z,69.1
2024-04-09T12:23:36.286Z,68.9
2024-04-09T12:24:38.535Z,68.9
2024-04-09T12:25:40.185Z,68
2024-04-09T12:26:42.147Z,68.7
2024-04-09T12:27:44.476Z,69.9
2024-04-09T12:28:46.127Z,70.3
2024-04-09T12:29:48.135Z,69.7
2024-04-09T12:30:50.609Z,69.1
2024-04-09T12:31:52.143Z,64.5
2024-04-09T12:32:54.385Z,62.5
2024-04-09T12:33:56.787Z,63.5
2024-04-09T12:34:58.538Z,65.2
2024-04-09T12:36:00.877Z,63.7
2024-04-09T12:37:02.132Z,61
2024-04-09T12:38:05.147Z,61.8
2024-04-09T12:39:06.385Z,63.6
2024-04-09T12:40:08.449Z,63.6
2024-04-09T12:41:11.035Z,64.8
2024-04-09T12:42:12.831Z,63.5
2024-04-09T12:43:14.509Z,61.7
2024-04-09T12:44:16.159Z,62.2
2024-04-09T12:45:18.629Z,61.5
2024-04-09T12:46:20.675Z,61.1
2024-04-09T12:47:22.830Z,63.9
2024-04-09T12:48:24.650Z,65.5
2024-04-09T12:49:41.439Z,65.8
2024-04-09T12:50:45.222Z,66.2
2024-04-09T12:51:47.355Z,65.9
2024-04-09T12:52:49.359Z,66.7
2024-04-09T12:53:51.029Z,66.6
2024-04-09T12:54:53.424Z,64.5
2024-04-09T12:55:55.209Z,62.7
2024-04-09T12:56:56.917Z,66.3
2024-04-09T12:57:59.055Z,64.8
2024-04-09T12:59:00.947Z,64.2
2024-04-09T13:00:13.877Z,61.5
2024-04-09T13:01:32.260Z,63.2
2024-04-09T13:02:35.009Z,64.4
2024-04-09T13:03:36.411Z,63.2
2024-04-09T13:04:38.180Z,64.2
2024-04-09T13:05:40.226Z,62.5
2024-04-09T13:06:42.769Z,61.1
2024-04-09T13:07:44.232Z,62.8
2024-04-09T13:08:45.833Z,64.4
2024-04-09T13:09:48.425Z,65.1
2024-04-09T13:10:51.044Z,64.2
2024-04-09T13:11:53.061Z,61.7
2024-04-09T13:12:55.141Z,61.4
2024-04-09T13:13:56.726Z,61.6
2024-04-09T13:16:47.004Z,57.9
2024-04-09T13:17:52.344Z,57.2
2024-04-09T13:18:54.324Z,58.7
2024-04-09T13:19:55.833Z,60.4
2024-04-09T13:20:58.941Z,60.7
2024-04-09T13:22:00.096Z,60.2
2024-04-09T13:23:07.098Z,60.2
2024-04-09T13:24:09.034Z,60
2024-04-09T13:25:10.170Z,60.7
2024-04-09T13:26:12.569Z,61.7
2024-04-09T13:27:14.625Z,62.5
2024-04-09T13:28:16.478Z,61.3
2024-04-09T13:29:19.525Z,62.4
2024-04-09T13:30:20.805Z,61.9
2024-04-09T13:31:22.215Z,62.7
2024-04-09T13:32:25.091Z,61.2
2024-04-09T13:33:26.697Z,64.1
2024-04-09T13:34:28.200Z,63.6
2024-04-09T13:35:30.539Z,63
2024-04-09T13:36:32.158Z,61.7
2024-04-09T13:37:34.156Z,62.2
2024-04-09T13:38:36.157Z,62.8
2024-04-09T13:39:38.173Z,63.7
2024-04-09T13:40:40.546Z,62.8
2024-04-09T13:41:42.173Z,63.4
2024-04-09T13:42:44.261Z,62.9
2024-04-09T13:43:46.287Z,61
2024-04-09T13:44:48.158Z,61.9
2024-04-09T13:45:50.435Z,62.5
2024-04-09T13:46:53.248Z,62.6
2024-04-09T13:47:56.171Z,62.1
2024-04-09T13:48:58.193Z,61.8
2024-04-09T13:49:59.306Z,62
2024-04-09T13:51:01.178Z,61.9
2024-04-09T13:52:03.177Z,60.1
2024-04-09T13:53:06.743Z,62.2
2024-04-09T13:54:08.395Z,60.4